createdAt,value
2022-10-05T00:00:01.394Z,12.80
2022-10-05T00:02:33.510Z,12.80
2022-10-05T00:05:02.037Z,12.90
2022-10-05T00:07:31.348Z,12.90
2022-10-05T00:10:01.057Z,12.80
2022-10-05T00:12:30.882Z,12.60
2022-10-05T00:15:02.733Z,12.50
2022-10-05T00:17:31.825Z,12.40
2022-10-05T00:20:01.191Z,12.30
2022-10-05T00:22:33.185Z,12.20
2022-10-05T00:25:12.091Z,12.10
2022-10-05T00:27:42.817Z,12.00
2022-10-05T00:30:17.135Z,11.90
2022-10-05T00:32:46.591Z,11.70
2022-10-05T00:35:17.569Z,11.60
2022-10-05T00:37:52.207Z,11.60
2022-10-05T00:40:36.686Z,11.50
2022-10-05T00:43:45.954Z,11.40
2022-10-05T00:46:23.565Z,11.40
2022-10-05T00:49:04.803Z,11.30
2022-10-05T00:51:37.004Z,11.20
2022-10-05T00:54:29.088Z,11.20
2022-10-05T00:57:20.169Z,11.10
2022-10-05T01:00:06.684Z,11.00
2022-10-05T01:02:52.310Z,11.00
2022-10-05T01:05:46.597Z,10.90
2022-10-05T01:08:30.651Z,10.90
2022-10-05T01:11:12.609Z,10.80
2022-10-05T01:13:54.507Z,10.80
2022-10-05T01:16:32.820Z,10.60
2022-10-05T01:19:22.790Z,10.60
2022-10-05T01:21:58.353Z,10.80
2022-10-05T01:24:50.883Z,11.00
2022-10-05T01:27:40.085Z,11.10
2022-10-05T01:30:13.425Z,11.10
2022-10-05T01:32:50.810Z,11.30
2022-10-05T01:35:44.604Z,11.40
2022-10-05T01:38:36.581Z,11.50
2022-10-05T01:41:22.635Z,11.60
2022-10-05T01:44:00.554Z,11.80
2022-10-05T01:46:39.137Z,11.70
2022-10-05T01:49:37.134Z,11.60
2022-10-05T01:52:29.565Z,11.40
2022-10-05T01:55:16.155Z,11.20
2022-10-05T01:58:02.261Z,11.10
2022-10-05T02:00:41.956Z,10.90
2022-10-05T02:03:19.001Z,10.80
2022-10-05T02:05:55.528Z,10.70
2022-10-05T02:08:35.678Z,10.60
2022-10-05T02:11:10.043Z,10.50
2022-10-05T02:13:44.635Z,10.50
2022-10-05T02:16:24.294Z,10.40
2022-10-05T02:18:58.238Z,10.40
2022-10-05T02:21:28.395Z,10.40
2022-10-05T02:24:07.842Z,10.30
2022-10-05T02:26:38.492Z,10.20
2022-10-05T02:29:12.801Z,10.20
2022-10-05T02:31:51.493Z,10.10
2022-10-05T02:34:30.465Z,10.10
2022-10-05T02:37:29.098Z,10.00
2022-10-05T02:40:17.630Z,10.00
2022-10-05T02:42:57.419Z,9.90
2022-10-05T02:45:41.248Z,9.90
2022-10-05T02:48:22.457Z,9.80
2022-10-05T02:51:00.069Z,9.90
2022-10-05T02:53:41.058Z,10.10
2022-10-05T02:56:24.697Z,10.10
2022-10-05T02:59:05.281Z,10.20
2022-10-05T03:01:42.410Z,10.30
2022-10-05T03:04:30.487Z,10.50
2022-10-05T03:07:16.155Z,10.60
2022-10-05T03:10:01.121Z,10.80
2022-10-05T03:12:48.648Z,10.90
2022-10-05T03:15:59.764Z,10.90
2022-10-05T03:18:50.009Z,10.90
2022-10-05T03:21:42.336Z,10.90
2022-10-05T03:24:40.129Z,10.90
2022-10-05T03:27:26.836Z,11.00
2022-10-05T03:30:06.907Z,10.90
2022-10-05T03:32:55.957Z,10.80
2022-10-05T03:35:32.707Z,10.70
2022-10-05T03:38:15.143Z,10.60
2022-10-05T03:40:54.219Z,10.40
2022-10-05T03:43:53.874Z,10.50
2022-10-05T03:46:40.331Z,10.40
2022-10-05T03:49:16.933Z,10.40
2022-10-05T03:51:52.766Z,10.20
2022-10-05T03:54:30.880Z,10.20
2022-10-05T03:57:08.530Z,10.20
2022-10-05T03:59:45.897Z,10.20
2022-10-05T04:02:24.062Z,10.20
2022-10-05T04:05:01.420Z,10.20
2022-10-05T04:07:43.429Z,10.10
2022-10-05T04:10:20.258Z,10.00
2022-10-05T04:12:56.825Z,10.00
2022-10-05T04:15:35.083Z,9.90
2022-10-05T04:18:16.612Z,9.90
2022-10-05T04:20:52.073Z,9.90
2022-10-05T04:23:37.661Z,9.80
2022-10-05T04:26:14.594Z,9.80
2022-10-05T04:28:54.903Z,9.80
2022-10-05T04:31:57.539Z,9.70
2022-10-05T04:34:54.270Z,9.80
2022-10-05T04:37:46.637Z,9.70
2022-10-05T04:40:39.900Z,9.70
2022-10-05T04:43:20.452Z,9.60
2022-10-05T04:46:19.209Z,9.60
2022-10-05T04:49:12.656Z,9.60
2022-10-05T04:51:56.843Z,9.60
2022-10-05T04:54:42.722Z,9.60
2022-10-05T04:57:20.858Z,9.50
2022-10-05T05:00:18.333Z,9.50
2022-10-05T05:03:13.838Z,9.50
2022-10-05T05:06:16.380Z,9.60
2022-10-05T05:09:27.641Z,9.60
2022-10-05T05:12:18.069Z,9.50
2022-10-05T05:15:27.089Z,9.50
2022-10-05T05:18:36.017Z,9.50
2022-10-05T05:21:22.835Z,9.50
2022-10-05T05:24:03.596Z,9.50
2022-10-05T05:26:58.939Z,9.40
2022-10-05T05:29:48.981Z,9.30
2022-10-05T05:32:33.267Z,9.30
2022-10-05T05:35:24.542Z,9.40
2022-10-05T05:38:14.689Z,9.40
2022-10-05T05:40:53.737Z,9.40
2022-10-05T05:43:30.871Z,9.40
2022-10-05T05:46:07.241Z,9.50
2022-10-05T05:48:43.327Z,9.60
2022-10-05T05:51:21.835Z,9.60
2022-10-05T05:53:57.191Z,9.70
2022-10-05T05:56:35.526Z,9.80
2022-10-05T05:59:15.159Z,9.90
2022-10-05T06:01:51.941Z,9.90
2022-10-05T06:04:32.327Z,9.90
2022-10-05T06:07:05.989Z,10.10
2022-10-05T06:09:44.307Z,10.20
2022-10-05T06:12:28.215Z,10.30
2022-10-05T06:15:02.951Z,10.50
2022-10-05T06:17:42.321Z,10.50
2022-10-05T06:20:23.258Z,10.60
2022-10-05T06:22:53.472Z,10.80
2022-10-05T06:25:37.561Z,10.90
2022-10-05T06:28:12.087Z,11.00
2022-10-05T06:31:04.794Z,11.20
2022-10-05T06:33:53.112Z,11.30
2022-10-05T06:36:44.201Z,11.60
2022-10-05T06:39:41.138Z,11.90
2022-10-05T06:42:36.637Z,12.50
2022-10-05T06:45:27.127Z,12.70
2022-10-05T06:48:42.752Z,12.90
2022-10-05T06:51:43.653Z,13.10
2022-10-05T06:54:42.572Z,13.40
2022-10-05T06:57:30.010Z,13.60
2022-10-05T07:00:03.832Z,13.90
2022-10-05T07:02:47.905Z,14.00
2022-10-05T07:05:52.394Z,14.10
2022-10-05T07:08:38.221Z,14.30
2022-10-05T07:11:25.490Z,14.50
2022-10-05T07:14:14.272Z,14.60
2022-10-05T07:17:05.284Z,14.50
2022-10-05T07:19:47.440Z,14.50
2022-10-05T07:22:47.598Z,14.50
2022-10-05T07:25:23.733Z,14.50
2022-10-05T07:28:01.786Z,14.70
2022-10-05T07:30:36.111Z,14.60
2022-10-05T07:33:14.725Z,14.70
2022-10-05T07:36:14.124Z,14.70
2022-10-05T07:38:53.703Z,14.80
2022-10-05T07:41:38.097Z,15.00
2022-10-05T07:44:16.962Z,15.30
2022-10-05T07:46:55.510Z,15.80
2022-10-05T07:49:37.477Z,16.40
2022-10-05T07:52:12.564Z,17.10
2022-10-05T07:54:56.981Z,17.60
2022-10-05T07:57:44.711Z,18.10
2022-10-05T08:00:20.265Z,18.90
2022-10-05T08:02:56.456Z,19.30
2022-10-05T08:05:30.516Z,19.00
2022-10-05T08:08:14.317Z,18.90
2022-10-05T08:10:57.038Z,18.50
2022-10-05T08:13:34.303Z,18.90
2022-10-05T08:16:12.458Z,19.20
2022-10-05T08:19:00.908Z,19.30
2022-10-05T08:21:37.495Z,19.50
2022-10-05T08:24:18.653Z,20.00
2022-10-05T08:26:56.266Z,20.20
2022-10-05T08:29:35.355Z,20.50
2022-10-05T08:32:12.052Z,20.90
2022-10-05T08:34:52.792Z,21.50
2022-10-05T08:37:27.282Z,21.50
2022-10-05T08:40:13.366Z,21.70
2022-10-05T08:43:20.501Z,21.90
2022-10-05T08:46:17.679Z,22.00
2022-10-05T08:49:37.819Z,22.10
2022-10-05T08:52:29.829Z,22.10
2022-10-05T08:55:26.195Z,22.10
2022-10-05T08:58:43.383Z,21.80
2022-10-05T09:01:23.711Z,21.90
2022-10-05T09:04:21.309Z,22.40
2022-10-05T09:07:28.775Z,21.90
2022-10-05T09:10:53.635Z,21.40
2022-10-05T09:14:13.856Z,21.40
2022-10-05T09:17:24.552Z,21.60
2022-10-05T09:20:10.864Z,21.90
2022-10-05T09:23:00.999Z,22.10
2022-10-05T09:25:50.918Z,22.00
2022-10-05T09:28:32.096Z,21.50
2022-10-05T09:31:31.698Z,21.20
2022-10-05T09:34:46.198Z,21.10
2022-10-05T09:37:58.776Z,21.20
2022-10-05T09:41:16.585Z,21.90
2022-10-05T09:44:50.105Z,22.40
2022-10-05T09:48:00.606Z,22.60
2022-10-05T09:51:27.089Z,22.80
2022-10-05T09:54:39.270Z,22.80
2022-10-05T09:57:47.209Z,22.70
2022-10-05T10:00:29.067Z,22.50
2022-10-05T10:04:08.027Z,22.10
2022-10-05T10:07:17.231Z,21.60
2022-10-05T10:10:19.102Z,21.50
2022-10-05T10:13:18.066Z,21.40
2022-10-05T10:16:19.925Z,21.40
2022-10-05T10:19:20.847Z,21.20
2022-10-05T10:22:32.039Z,21.20
2022-10-05T10:25:28.683Z,21.20
2022-10-05T10:28:22.373Z,21.20
2022-10-05T10:31:19.211Z,21.20
2022-10-05T10:34:35.307Z,21.10
2022-10-05T10:37:40.552Z,21.00
2022-10-05T10:40:34.944Z,20.90
2022-10-05T10:43:49.236Z,20.80
2022-10-05T10:46:36.406Z,21.00
2022-10-05T10:49:26.769Z,20.90
2022-10-05T10:52:21.087Z,20.90
2022-10-05T10:55:28.603Z,21.00
2022-10-05T10:58:45.790Z,21.00
2022-10-05T11:01:32.464Z,20.90
2022-10-05T11:04:36.074Z,21.00
2022-10-05T11:07:42.740Z,21.10
2022-10-05T11:10:51.597Z,20.80
2022-10-05T11:13:48.703Z,20.50
2022-10-05T11:17:00.568Z,20.20
2022-10-05T11:20:06.172Z,19.90
2022-10-05T11:22:58.507Z,19.70
2022-10-05T11:25:53.627Z,19.60
2022-10-05T11:28:46.426Z,19.50
2022-10-05T11:31:54.098Z,19.40
2022-10-05T11:35:13.370Z,19.20
2022-10-05T11:38:04.663Z,18.70
2022-10-05T11:41:12.872Z,18.60
2022-10-05T11:44:29.747Z,18.60
2022-10-05T11:47:08.476Z,18.80
2022-10-05T11:49:46.886Z,18.70
2022-10-05T11:52:26.674Z,18.60
2022-10-05T11:55:22.922Z,18.60
2022-10-05T11:57:58.699Z,18.50
2022-10-05T12:00:37.189Z,18.40
2022-10-05T12:03:42.886Z,18.30
2022-10-05T12:06:40.946Z,18.40
2022-10-05T12:10:03.571Z,18.40
2022-10-05T12:12:45.026Z,18.40
2022-10-05T12:15:26.525Z,18.30
2022-10-05T12:18:08.213Z,18.20
2022-10-05T12:20:47.583Z,18.10
2022-10-05T12:23:28.785Z,18.10
2022-10-05T12:26:03.858Z,18.20
2022-10-05T12:28:39.652Z,18.20
2022-10-05T12:31:29.045Z,18.20
2022-10-05T12:34:11.435Z,18.30
2022-10-05T12:37:05.049Z,18.30
2022-10-05T12:39:44.470Z,18.30
2022-10-05T12:42:29.603Z,18.30
2022-10-05T12:45:19.619Z,18.30
2022-10-05T12:48:14.137Z,18.40
2022-10-05T12:50:49.281Z,18.30
2022-10-05T12:53:40.306Z,18.20
2022-10-05T12:56:21.577Z,18.20
2022-10-05T12:59:00.395Z,18.30
2022-10-05T13:01:42.376Z,18.30
2022-10-05T13:04:31.444Z,18.30
2022-10-05T13:07:25.602Z,18.40
2022-10-05T13:10:11.151Z,18.30
2022-10-05T13:12:53.917Z,18.20
2022-10-05T13:15:30.874Z,18.20
2022-10-05T13:18:18.193Z,18.30
2022-10-05T13:21:02.743Z,18.30
2022-10-05T13:23:57.398Z,18.30
2022-10-05T13:26:34.492Z,18.20
2022-10-05T13:29:17.625Z,18.10
2022-10-05T13:31:54.304Z,18.10
2022-10-05T13:34:32.224Z,18.10
2022-10-05T13:37:13.491Z,18.10
2022-10-05T13:39:59.282Z,18.10
2022-10-05T13:42:39.023Z,18.20
2022-10-05T13:45:19.415Z,18.20
2022-10-05T13:48:13.140Z,18.10
2022-10-05T13:50:52.032Z,18.10
2022-10-05T13:53:35.405Z,18.20
2022-10-05T13:56:18.407Z,18.20
2022-10-05T13:58:52.656Z,18.20
2022-10-05T14:01:42.343Z,18.20
2022-10-05T14:04:19.812Z,18.20
2022-10-05T14:06:50.167Z,18.20
2022-10-05T14:09:33.011Z,18.20
2022-10-05T14:12:19.634Z,18.10
2022-10-05T14:14:52.211Z,18.00
2022-10-05T14:17:42.997Z,18.10
2022-10-05T14:20:26.991Z,18.30
2022-10-05T14:23:03.800Z,18.20
2022-10-05T14:25:50.248Z,18.20
2022-10-05T14:28:29.503Z,18.20
2022-10-05T14:31:00.585Z,18.20
2022-10-05T14:33:33.533Z,18.30
2022-10-05T14:36:02.710Z,18.20
2022-10-05T14:38:37.056Z,18.30
2022-10-05T14:41:20.165Z,18.30
2022-10-05T14:43:55.830Z,18.30
2022-10-05T14:46:29.215Z,18.30
2022-10-05T14:49:22.841Z,18.30
2022-10-05T14:51:53.290Z,18.30
2022-10-05T14:54:41.768Z,18.30
2022-10-05T14:57:25.108Z,18.30
2022-10-05T15:00:16.484Z,18.30
2022-10-05T15:03:21.878Z,18.30
2022-10-05T15:05:56.143Z,18.30
2022-10-05T15:08:53.328Z,18.30
2022-10-05T15:11:38.670Z,18.30
2022-10-05T15:14:18.706Z,18.20
2022-10-05T15:16:51.411Z,18.20
2022-10-05T15:19:25.876Z,18.20
2022-10-05T15:22:18.986Z,18.20
2022-10-05T15:25:03.823Z,18.30
2022-10-05T15:27:51.331Z,18.30
2022-10-05T15:30:23.193Z,18.30
2022-10-05T15:33:09.707Z,18.30
2022-10-05T15:36:05.318Z,18.30
2022-10-05T15:38:45.677Z,18.20
2022-10-05T15:41:20.948Z,18.20
2022-10-05T15:44:07.762Z,18.20
2022-10-05T15:46:53.440Z,18.20
2022-10-05T15:49:37.058Z,18.20
2022-10-05T15:52:23.872Z,18.20
2022-10-05T15:55:20.256Z,18.20
2022-10-05T15:58:08.843Z,18.20
2022-10-05T16:00:47.434Z,18.10
2022-10-05T16:03:28.045Z,18.10
2022-10-05T16:06:24.561Z,18.10
2022-10-05T16:09:11.362Z,18.10
2022-10-05T16:12:03.193Z,18.00
2022-10-05T16:14:59.727Z,18.00
2022-10-05T16:17:54.266Z,18.00
2022-10-05T16:20:41.025Z,18.00
2022-10-05T16:23:23.753Z,17.90
2022-10-05T16:26:13.111Z,17.90
2022-10-05T16:28:57.583Z,17.90
2022-10-05T16:31:37.306Z,17.90
2022-10-05T16:34:27.177Z,17.80
2022-10-05T16:37:10.557Z,17.80
2022-10-05T16:40:00.354Z,17.70
2022-10-05T16:42:49.671Z,17.70
2022-10-05T16:45:44.793Z,17.70
2022-10-05T16:48:23.580Z,17.60
2022-10-05T16:51:18.370Z,17.50
2022-10-05T16:54:00.120Z,17.60
2022-10-05T16:56:38.508Z,17.50
2022-10-05T16:59:47.545Z,17.40
2022-10-05T17:02:34.942Z,17.40
2022-10-05T17:05:25.866Z,17.30
2022-10-05T17:08:15.127Z,17.20
2022-10-05T17:11:04.813Z,17.20
2022-10-05T17:14:16.583Z,17.20
2022-10-05T17:17:15.908Z,17.20
2022-10-05T17:20:15.885Z,17.10
2022-10-05T17:22:53.042Z,17.10
2022-10-05T17:25:35.278Z,17.00
2022-10-05T17:28:25.261Z,16.90
2022-10-05T17:31:15.898Z,16.90
2022-10-05T17:34:14.498Z,16.80
2022-10-05T17:36:49.849Z,16.80
2022-10-05T17:39:21.287Z,16.80
2022-10-05T17:41:50.536Z,16.50
2022-10-05T17:44:26.042Z,16.80
2022-10-05T17:46:58.475Z,16.70
2022-10-05T17:50:17.590Z,16.70
2022-10-05T17:53:35.341Z,16.70
2022-10-05T17:56:05.848Z,16.60
2022-10-05T17:59:04.452Z,16.60
2022-10-05T18:01:37.373Z,16.60
2022-10-05T18:04:38.684Z,16.50
2022-10-05T18:07:28.138Z,16.40
2022-10-05T18:10:21.857Z,16.50
2022-10-05T18:13:21.649Z,16.50
2022-10-05T18:15:50.485Z,16.30
2022-10-05T18:18:57.138Z,16.20
2022-10-05T18:21:34.243Z,16.30
2022-10-05T18:24:55.701Z,16.30
2022-10-05T18:28:11.964Z,16.40
2022-10-05T18:31:17.449Z,16.40
2022-10-05T18:34:05.268Z,16.40
2022-10-05T18:37:08.730Z,16.30
2022-10-05T18:40:08.545Z,16.20
2022-10-05T18:42:50.638Z,16.30
2022-10-05T18:45:26.899Z,16.40
2022-10-05T18:48:18.106Z,16.40
2022-10-05T18:50:59.602Z,16.60
2022-10-05T18:53:40.414Z,16.80
2022-10-05T18:56:26.273Z,16.80
2022-10-05T18:59:24.124Z,16.80
2022-10-05T19:02:10.971Z,16.90
2022-10-05T19:04:59.854Z,16.90
2022-10-05T19:07:45.386Z,16.90
2022-10-05T19:10:25.861Z,16.90
2022-10-05T19:13:13.804Z,17.00
2022-10-05T19:15:58.649Z,17.00
2022-10-05T19:18:59.859Z,17.00
2022-10-05T19:21:40.023Z,17.10
2022-10-05T19:24:42.698Z,17.10
2022-10-05T19:27:25.450Z,17.10
2022-10-05T19:30:22.922Z,17.10
2022-10-05T19:33:18.297Z,17.10
2022-10-05T19:36:02.043Z,17.10
2022-10-05T19:38:42.411Z,17.10
2022-10-05T19:41:18.662Z,17.10
2022-10-05T19:44:14.660Z,17.10
2022-10-05T19:47:01.096Z,17.20
2022-10-05T19:49:58.924Z,17.20
2022-10-05T19:52:40.029Z,17.20
2022-10-05T19:55:17.209Z,17.30
2022-10-05T19:57:50.702Z,17.30
2022-10-05T20:00:26.788Z,17.30
2022-10-05T20:03:11.910Z,17.40
2022-10-05T20:05:42.458Z,17.30
2022-10-05T20:08:18.125Z,17.40
2022-10-05T20:11:04.117Z,17.30
2022-10-05T20:13:35.091Z,17.30
2022-10-05T20:16:46.543Z,17.30
2022-10-05T20:19:49.452Z,17.20
2022-10-05T20:22:35.132Z,17.20
2022-10-05T20:25:07.033Z,17.10
2022-10-05T20:27:43.508Z,17.10
2022-10-05T20:30:16.235Z,17.10
2022-10-05T20:32:45.572Z,17.10
2022-10-05T20:35:15.753Z,17.10
2022-10-05T20:37:45.796Z,17.10
2022-10-05T20:40:14.827Z,17.00
2022-10-05T20:42:43.579Z,17.00
2022-10-05T20:45:13.631Z,17.10
2022-10-05T20:47:42.336Z,17.10
2022-10-05T20:50:11.867Z,17.10
2022-10-05T20:52:40.515Z,17.10
2022-10-05T20:55:13.182Z,17.10
2022-10-05T20:57:42.499Z,17.10
2022-10-05T21:00:13.498Z,17.10
2022-10-05T21:02:42.269Z,17.10
2022-10-05T21:05:10.900Z,17.10
2022-10-05T21:07:40.809Z,17.10
2022-10-05T21:10:11.355Z,17.10
2022-10-05T21:12:39.776Z,17.10
2022-10-05T21:15:10.052Z,17.10
2022-10-05T21:17:38.801Z,17.10
2022-10-05T21:20:11.129Z,17.10
2022-10-05T21:22:39.574Z,17.10
2022-10-05T21:25:10.265Z,17.10
2022-10-05T21:27:38.639Z,17.10
2022-10-05T21:30:09.026Z,17.10
2022-10-05T21:32:41.822Z,17.10
2022-10-05T21:35:12.545Z,17.10
2022-10-05T21:37:40.967Z,17.00
2022-10-05T21:40:11.833Z,17.00
2022-10-05T21:42:40.642Z,17.00
2022-10-05T21:45:10.844Z,17.00
2022-10-05T21:47:39.317Z,16.90
2022-10-05T21:50:09.437Z,16.90
2022-10-05T21:52:37.983Z,16.80
2022-10-05T21:55:08.246Z,16.80
2022-10-05T21:57:40.487Z,16.80
2022-10-05T22:00:11.606Z,16.90
2022-10-05T22:02:39.997Z,16.90
2022-10-05T22:05:09.611Z,16.80
2022-10-05T22:07:38.391Z,16.80
2022-10-05T22:10:09.347Z,16.70
2022-10-05T22:12:39.132Z,16.70
2022-10-05T22:15:09.517Z,16.70
2022-10-05T22:17:38.837Z,16.70
2022-10-05T22:20:11.342Z,16.70
2022-10-05T22:22:40.106Z,16.70
2022-10-05T22:25:09.405Z,16.70
2022-10-05T22:27:39.841Z,16.70
2022-10-05T22:30:10.102Z,16.80
2022-10-05T22:32:38.486Z,16.80
2022-10-05T22:35:11.561Z,16.70
2022-10-05T22:37:40.403Z,16.70
2022-10-05T22:40:11.141Z,16.70
2022-10-05T22:42:41.816Z,16.70
2022-10-05T22:45:10.758Z,16.70
2022-10-05T22:47:39.138Z,16.70
2022-10-05T22:50:09.409Z,16.60
2022-10-05T22:52:37.981Z,16.60
2022-10-05T22:55:07.867Z,16.50
2022-10-05T22:57:42.368Z,16.50
2022-10-05T23:00:13.080Z,16.50
2022-10-05T23:02:44.901Z,16.50
2022-10-05T23:05:14.623Z,16.50
2022-10-05T23:07:46.500Z,16.40
2022-10-05T23:10:18.882Z,16.40
2022-10-05T23:13:00.511Z,16.40
2022-10-05T23:15:29.585Z,16.40
2022-10-05T23:17:58.339Z,16.40
2022-10-05T23:20:26.939Z,16.30
2022-10-05T23:22:55.321Z,16.30
2022-10-05T23:25:24.083Z,16.30
2022-10-05T23:27:53.849Z,16.30
2022-10-05T23:30:22.281Z,16.30
2022-10-05T23:32:50.690Z,16.30
2022-10-05T23:35:19.221Z,16.30
2022-10-05T23:37:47.657Z,16.30
2022-10-05T23:40:16.239Z,16.40
2022-10-05T23:42:46.142Z,16.40
2022-10-05T23:45:17.762Z,16.50
2022-10-05T23:47:47.514Z,16.50
2022-10-05T23:50:16.577Z,16.60
2022-10-05T23:52:44.967Z,16.60
2022-10-05T23:55:13.371Z,16.70
2022-10-05T23:57:41.987Z,16.80
